Silia — WDG2034 — position and weather

sailwx.info

Track history (hours):
 
Tides and Currents Weather Stations Pressure Air Temp Water Temp Dewpoint Dewpoint Depression Visibility Wind Speed Wind Dir Waves Ship Positions

Silia

Owner: greger pacific marine, napa, CA. More information available from US FCC via Universal Licensing System and Coast Guard Vessel Documentation Center.

Last reported at 2016-Jul-25 19:33 UTC. Time now 2016-Jul-25 20:10 UTC.
Position N 37°42' W 122°22'.

Length 17 m; draft 3 m.

Type: Tug. MMSI: 367511460.

Date/timePositionNaut miles runAvg speedWind from/ knotsBaromVisibWave heightAir tempDewpointWater temp
2016-Jul-25 19:33N 37°42' W 122°22'4 4.2
2016-Jul-25 18:33N 37°46' W 122°22'3 2.6
2016-Jul-25 17:33N 37°48' W 122°24'7 6.8
2016-Jul-25 16:33N 37°42' W 122°22'6 6.5
2016-Jul-25 15:33N 37°48' W 122°24'3 2.6
2016-Jul-25 14:33N 37°46' W 122°22'5 0.5
2016-Jul-25 03:20N 37°40' W 122°23'1 0.3
2016-Jul-25 00:33N 37°41' W 122°22'7 6.8
2016-Jul-24 23:33N 37°47' W 122°23'0 0.2
2016-Jul-24 22:33N 37°47' W 122°23'5 5.3
2016-Jul-24 21:34N 37°42' W 122°21'3 2.7
2016-Jul-24 20:33N 37°45' W 122°22'4 4.2
2016-Jul-24 19:33N 37°49' W 122°24'6 5.8
2016-Jul-24 18:33N 37°43' W 122°21'3 2.9
2016-Jul-24 17:33N 37°41' W 122°22'2 1.5
2016-Jul-24 16:33N 37°42' W 122°22'6 5.8
2016-Jul-24 15:33N 37°48' W 122°23'1 0.9
2016-Jul-24 14:33N 37°48' W 122°24'7 6.7
2016-Jul-24 13:33N 37°42' W 122°21'1 0.1
2016-Jul-24 01:33N 37°41' W 122°22'6 5.6
2016-Jul-24 00:33N 37°46' W 122°23'3 2.9
2016-Jul-23 23:33N 37°49' W 122°24'8 7.5
2016-Jul-23 22:33N 37°42' W 122°22'1 0.7
2016-Jul-23 21:31N 37°41' W 122°22'8 8.4
2016-Jul-23 20:33N 37°49' W 122°24'2 2.5
2016-Jul-23 19:33N 37°47' W 122°23'5 4.5
2016-Jul-23 18:33N 37°42' W 122°21'2 1.6
2016-Jul-23 17:33N 37°41' W 122°22'1 0.7
2016-Jul-23 16:29N 37°40' W 122°23'1 0.8
2016-Jul-23 15:33N 37°41' W 122°22'1 0.1
2016-Jul-23 00:22N 37°40' W 122°23'3 4.1
2016-Jul-22 23:33N 37°43' W 122°21'6 5.9
2016-Jul-22 22:33N 37°49' W 122°24'3 3.0
2016-Jul-22 21:33N 37°46' W 122°22'4 4.3
2016-Jul-22 20:33N 37°42' W 122°21'1 0.6
2016-Jul-22 19:32N 37°43' W 122°21'7 7.6
2016-Jul-22 18:33N 37°49' W 122°25'5 5.1
2016-Jul-22 17:33N 37°45' W 122°22'5 4.9
2016-Jul-22 16:34N 37°40' W 122°23'4 3.9
2016-Jul-22 15:33N 37°44' W 122°21'6 5.6
2016-Jul-22 14:33N 37°49' W 122°25'5 4.6
2016-Jul-22 13:33N 37°45' W 122°22'4 4.4
2016-Jul-22 12:33N 37°41' W 122°22'1 0.1
2016-Jul-22 06:29N 37°40' W 122°23'0 0.0
2016-Jul-22 03:17N 37°40' W 122°23'0 0.0
2016-Jul-22 02:20N 37°40' W 122°23'0 0.0
2016-Jul-22 01:13N 37°40' W 122°23'0 0.0
2016-Jul-21 23:27N 37°40' W 122°23'0 0.3
2016-Jul-21 22:32N 37°40' W 122°22'7 7.0
2016-Jul-21 21:33N 37°47' W 122°23'0 0.3
2016-Jul-21 20:33N 37°47' W 122°23'5 5.1
2016-Jul-21 19:33N 37°42' W 122°21'2 2.0
2016-Jul-21 18:33N 37°44' W 122°22'5 4.7
2016-Jul-21 17:33N 37°49' W 122°24'6 5.7
2016-Jul-21 16:33N 37°44' W 122°21'2 1.6
2016-Jul-21 15:29N 37°42' W 122°22'7 7.1
2016-Jul-21 14:33N 37°48' W 122°24'3 3.0
2016-Jul-21 13:33N 37°45' W 122°22'5 2.2
2016-Jul-21 11:12N 37°40' W 122°23'0 0.0
2016-Jul-21 10:28N 37°40' W 122°23'0 0.0
2016-Jul-21 05:29N 37°40' W 122°23'0 0.0
2016-Jul-21 04:30N 37°40' W 122°23'2 0.5
2016-Jul-21 01:29N 37°42' W 122°22'6 6.9
2016-Jul-21 00:33N 37°48' W 122°23'1 0.6
2016-Jul-20 23:33N 37°47' W 122°23'7 6.5
2016-Jul-20 22:31N 37°41' W 122°22'7 6.8
2016-Jul-20 21:33N 37°47' W 122°23'1 1.2
2016-Jul-20 20:33N 37°48' W 122°24'7 6.8
2016-Jul-20 19:33N 37°42' W 122°22'5 4.9
2016-Jul-20 18:33N 37°46' W 122°23'2 1.7
2016-Jul-20 17:33N 37°48' W 122°23'4 4.5
2016-Jul-20 16:34N 37°44' W 122°21'4 3.3
2016-Jul-20 15:30N 37°40' W 122°22'0 0.3
2016-Jul-20 14:33N 37°41' W 122°22'1 0.5
2016-Jul-20 13:29N 37°40' W 122°23'4 0.3
2016-Jul-19 23:27N 37°44' W 122°21'5 6.1
2016-Jul-19 22:33N 37°49' W 122°24'4 4.2
2016-Jul-19 21:32N 37°45' W 122°22'1 0.0
2016-Jul-18 22:29N 37°44' W 122°22'6 6.2
2016-Jul-18 21:33N 37°49' W 122°25'5 5.1
2016-Jul-18 20:33N 37°45' W 122°22'1 1.3
2016-Jul-18 19:30N 37°43' W 122°21'7 7.2
2016-Jul-18 18:33N 37°49' W 122°25'5 5.1
2016-Jul-18 17:33N 37°45' W 122°22'5 0.3
2016-Jul-18 01:32N 37°40' W 122°23'4 0.1
2016-Jul-15 22:21N 37°44' W 122°21'6 7.1
2016-Jul-15 21:33N 37°49' W 122°25'5 4.8
2016-Jul-15 20:33N 37°45' W 122°22'0 0.2
2016-Jul-15 19:33N 37°45' W 122°22'  
Track history (hours):
 
Tides and Currents Weather Stations Pressure Air Temp Water Temp Dewpoint Dewpoint Depression Visibility Wind Speed Wind Dir Waves Ship Positions

Silia

Owner: greger pacific marine, napa, CA. More information available from US FCC via Universal Licensing System and Coast Guard Vessel Documentation Center.

Last reported at 2016-Jul-25 19:33 UTC. Time now 2016-Jul-25 20:10 UTC.
Position N 37°42' W 122°22'.

Length 17 m; draft 3 m.

Type: Tug. MMSI: 367511460.

Date/timePositionNaut miles runAvg speedWind from/ knotsBaromVisibWave heightAir tempDewpointWater temp
2016-Jul-25 19:33N 37°42' W 122°22'4 4.2
2016-Jul-25 18:33N 37°46' W 122°22'3 2.6
2016-Jul-25 17:33N 37°48' W 122°24'7 6.8
2016-Jul-25 16:33N 37°42' W 122°22'6 6.5
2016-Jul-25 15:33N 37°48' W 122°24'3 2.6
2016-Jul-25 14:33N 37°46' W 122°22'5 0.5
2016-Jul-25 03:20N 37°40' W 122°23'1 0.3
2016-Jul-25 00:33N 37°41' W 122°22'7 6.8
2016-Jul-24 23:33N 37°47' W 122°23'0 0.2
2016-Jul-24 22:33N 37°47' W 122°23'5 5.3
2016-Jul-24 21:34N 37°42' W 122°21'3 2.7
2016-Jul-24 20:33N 37°45' W 122°22'4 4.2
2016-Jul-24 19:33N 37°49' W 122°24'6 5.8
2016-Jul-24 18:33N 37°43' W 122°21'3 2.9
2016-Jul-24 17:33N 37°41' W 122°22'2 1.5
2016-Jul-24 16:33N 37°42' W 122°22'6 5.8
2016-Jul-24 15:33N 37°48' W 122°23'1 0.9
2016-Jul-24 14:33N 37°48' W 122°24'7 6.7
2016-Jul-24 13:33N 37°42' W 122°21'1 0.1
2016-Jul-24 01:33N 37°41' W 122°22'6 5.6
2016-Jul-24 00:33N 37°46' W 122°23'3 2.9
2016-Jul-23 23:33N 37°49' W 122°24'8 7.5
2016-Jul-23 22:33N 37°42' W 122°22'1 0.7
2016-Jul-23 21:31N 37°41' W 122°22'8 8.4
2016-Jul-23 20:33N 37°49' W 122°24'2 2.5
2016-Jul-23 19:33N 37°47' W 122°23'5 4.5
2016-Jul-23 18:33N 37°42' W 122°21'2 1.6
2016-Jul-23 17:33N 37°41' W 122°22'1 0.7
2016-Jul-23 16:29N 37°40' W 122°23'1 0.8
2016-Jul-23 15:33N 37°41' W 122°22'1 0.1
2016-Jul-23 00:22N 37°40' W 122°23'3 4.1
2016-Jul-22 23:33N 37°43' W 122°21'6 5.9
2016-Jul-22 22:33N 37°49' W 122°24'3 3.0
2016-Jul-22 21:33N 37°46' W 122°22'4 4.3
2016-Jul-22 20:33N 37°42' W 122°21'1 0.6
2016-Jul-22 19:32N 37°43' W 122°21'7 7.6
2016-Jul-22 18:33N 37°49' W 122°25'5 5.1
2016-Jul-22 17:33N 37°45' W 122°22'5 4.9
2016-Jul-22 16:34N 37°40' W 122°23'4 3.9
2016-Jul-22 15:33N 37°44' W 122°21'6 5.6
2016-Jul-22 14:33N 37°49' W 122°25'5 4.6
2016-Jul-22 13:33N 37°45' W 122°22'4 4.4
2016-Jul-22 12:33N 37°41' W 122°22'1 0.1
2016-Jul-22 06:29N 37°40' W 122°23'0 0.0
2016-Jul-22 03:17N 37°40' W 122°23'0 0.0
2016-Jul-22 02:20N 37°40' W 122°23'0 0.0
2016-Jul-22 01:13N 37°40' W 122°23'0 0.0
2016-Jul-21 23:27N 37°40' W 122°23'0 0.3
2016-Jul-21 22:32N 37°40' W 122°22'7 7.0
2016-Jul-21 21:33N 37°47' W 122°23'0 0.3
2016-Jul-21 20:33N 37°47' W 122°23'5 5.1
2016-Jul-21 19:33N 37°42' W 122°21'2 2.0
2016-Jul-21 18:33N 37°44' W 122°22'5 4.7
2016-Jul-21 17:33N 37°49' W 122°24'6 5.7
2016-Jul-21 16:33N 37°44' W 122°21'2 1.6
2016-Jul-21 15:29N 37°42' W 122°22'7 7.1
2016-Jul-21 14:33N 37°48' W 122°24'3 3.0
2016-Jul-21 13:33N 37°45' W 122°22'5 2.2
2016-Jul-21 11:12N 37°40' W 122°23'0 0.0
2016-Jul-21 10:28N 37°40' W 122°23'0 0.0
2016-Jul-21 05:29N 37°40' W 122°23'0 0.0
2016-Jul-21 04:30N 37°40' W 122°23'2 0.5
2016-Jul-21 01:29N 37°42' W 122°22'6 6.9
2016-Jul-21 00:33N 37°48' W 122°23'1 0.6
2016-Jul-20 23:33N 37°47' W 122°23'7 6.5
2016-Jul-20 22:31N 37°41' W 122°22'7 6.8
2016-Jul-20 21:33N 37°47' W 122°23'1 1.2
2016-Jul-20 20:33N 37°48' W 122°24'7 6.8
2016-Jul-20 19:33N 37°42' W 122°22'5 4.9
2016-Jul-20 18:33N 37°46' W 122°23'2 1.7
2016-Jul-20 17:33N 37°48' W 122°23'4 4.5
2016-Jul-20 16:34N 37°44' W 122°21'4 3.3
2016-Jul-20 15:30N 37°40' W 122°22'0 0.3
2016-Jul-20 14:33N 37°41' W 122°22'1 0.5
2016-Jul-20 13:29N 37°40' W 122°23'4 0.3
2016-Jul-19 23:27N 37°44' W 122°21'5 6.1
2016-Jul-19 22:33N 37°49' W 122°24'4 4.2
2016-Jul-19 21:32N 37°45' W 122°22'1 0.0
2016-Jul-18 22:29N 37°44' W 122°22'6 6.2
2016-Jul-18 21:33N 37°49' W 122°25'5 5.1
2016-Jul-18 20:33N 37°45' W 122°22'1 1.3
2016-Jul-18 19:30N 37°43' W 122°21'7 7.2
2016-Jul-18 18:33N 37°49' W 122°25'5 5.1
2016-Jul-18 17:33N 37°45' W 122°22'5 0.3
2016-Jul-18 01:32N 37°40' W 122°23'4 0.1
2016-Jul-15 22:21N 37°44' W 122°21'6 7.1
2016-Jul-15 21:33N 37°49' W 122°25'5 4.8
2016-Jul-15 20:33N 37°45' W 122°22'0 0.2
2016-Jul-15 19:33N 37°45' W 122°22'  

Dump ship's entire track history